Time;durP1;ratioP1;P1;durP2;ratioP2;P2;SDS_P1;SDS_P2;PMS_P1;PMS_P2;Temp;Humidity;BMP_temperature;BMP_pressure;BME280_temperature;BME280_humidity;BME280_pressure;Samples;Min_cycle;Max_cycle;Signal;HPM_P1;HPM_P2
2022/04/20 00:00:15;;;;;;;;;;;10.80;99.90;;;;;;5056217;28;19913;-78
2022/04/20 00:02:41;;;;;;;;;;;10.80;99.90;;;;;;5055767;28;19992;-77
2022/04/20 00:05:07;;;;;;;;;;;10.90;99.90;;;;;;5056066;28;19955;-78
2022/04/20 00:07:33;;;;;;;;;;;11.00;99.90;;;;;;5056000;28;19948;-77
2022/04/20 00:09:59;;;;;;;;;;;11.10;99.90;;;;;;5054583;28;19944;-78
2022/04/20 00:12:25;;;;;;;;;;;11.00;99.90;;;;;;5055915;28;19912;-77
2022/04/20 00:14:51;;;;;;;;;;;10.90;99.90;;;;;;5054551;28;19904;-77
2022/04/20 00:17:17;;;;;;;;;;;10.70;99.90;;;;;;5056051;28;20352;-78
2022/04/20 00:19:42;;;;;;;;;;;10.70;99.90;;;;;;5054382;28;19915;-77
2022/04/20 00:22:08;;;;;;;;;;;10.60;99.90;;;;;;5055738;28;19909;-78
2022/04/20 00:24:33;;;;;;;;;;;10.60;99.90;;;;;;5054422;28;19983;-77
2022/04/20 00:26:59;;;;;;;;;;;10.60;99.90;;;;;;5055931;28;20361;-77
2022/04/20 00:29:25;;;;;;;;;;;10.40;99.90;;;;;;5054330;28;19990;-77
2022/04/20 00:31:50;;;;;;;;;;;10.30;99.90;;;;;;5055580;28;20280;-78
2022/04/20 00:34:16;;;;;;;;;;;10.10;99.90;;;;;;5055531;28;19912;-78
2022/04/20 00:36:41;;;;;;;;;;;10.10;99.90;;;;;;5055308;28;19943;-78
2022/04/20 00:39:07;;;;;;;;;;;10.00;99.90;;;;;;5054064;28;19909;-77
2022/04/20 00:41:33;;;;;;;;;;;9.70;99.90;;;;;;5054109;28;19992;-78
2022/04/20 00:43:59;;;;;;;;;;;9.40;99.90;;;;;;5055346;28;20368;-77
2022/04/20 00:46:26;;;;;;;;;;;9.50;99.90;;;;;;5055268;28;19905;-78
2022/04/20 00:48:52;;;;;;;;;;;9.60;99.90;;;;;;5055234;28;19912;-78
2022/04/20 00:51:17;;;;;;;;;;;9.50;99.90;;;;;;5055530;28;19905;-77
2022/04/20 00:53:43;;;;;;;;;;;9.60;99.90;;;;;;5055375;28;20030;-77
2022/04/20 00:56:08;;;;;;;;;;;9.60;99.90;;;;;;5055100;28;19904;-77
2022/04/20 00:58:35;;;;;;;;;;;9.70;99.90;;;;;;5055045;28;19944;-77
2022/04/20 01:01:01;;;;;;;;;;;9.70;99.90;;;;;;5054937;28;19905;-77
2022/04/20 01:03:27;;;;;;;;;;;9.60;99.90;;;;;;5053647;28;19905;-78
2022/04/20 01:05:52;;;;;;;;;;;9.60;99.90;;;;;;5054894;28;20459;-77
2022/04/20 01:08:18;;;;;;;;;;;9.80;99.90;;;;;;5054817;28;19957;-78
2022/04/20 01:10:43;;;;;;;;;;;9.80;99.90;;;;;;5053432;28;20359;-78
2022/04/20 01:13:09;;;;;;;;;;;9.70;99.90;;;;;;5054316;28;19904;-79
2022/04/20 01:15:35;;;;;;;;;;;9.60;99.90;;;;;;5054709;28;19947;-77
2022/04/20 01:18:09;;;;;;;;;;;9.60;99.90;;;;;;5053404;28;19936;-78
2022/04/20 01:20:34;;;;;;;;;;;9.60;99.90;;;;;;5053021;28;19908;-77
2022/04/20 01:23:00;;;;;;;;;;;9.60;99.90;;;;;;5054708;28;19905;-77
2022/04/20 01:25:26;;;;;;;;;;;9.40;99.90;;;;;;5054502;28;19905;-78
2022/04/20 01:27:51;;;;;;;;;;;9.10;99.90;;;;;;5053142;28;19904;-78
2022/04/20 01:30:17;;;;;;;;;;;9.00;99.90;;;;;;5053091;28;19905;-78
2022/04/20 01:32:43;;;;;;;;;;;9.00;99.90;;;;;;5054636;28;19905;-78
2022/04/20 01:35:09;;;;;;;;;;;9.10;99.90;;;;;;5054282;28;19912;-77
2022/04/20 01:37:35;;;;;;;;;;;9.10;99.90;;;;;;5054458;28;19911;-78
2022/04/20 01:40:00;;;;;;;;;;;9.20;99.90;;;;;;5054637;28;19909;-78
2022/04/20 01:42:26;;;;;;;;;;;9.10;99.90;;;;;;5052905;28;20253;-77
2022/04/20 01:44:52;;;;;;;;;;;9.10;99.90;;;;;;5054196;28;19944;-78
2022/04/20 01:47:17;;;;;;;;;;;9.20;99.90;;;;;;5052831;28;19909;-77
2022/04/20 01:49:43;;;;;;;;;;;9.20;99.90;;;;;;5054120;28;19912;-78
2022/04/20 01:52:08;;;;;;;;;;;9.30;99.90;;;;;;5054074;28;20442;-78
2022/04/20 01:54:34;;;;;;;;;;;9.10;99.90;;;;;;5052746;28;19904;-77
2022/04/20 01:56:59;;;;;;;;;;;9.00;99.90;;;;;;5054036;28;19904;-79
2022/04/20 01:59:25;;;;;;;;;;;9.10;99.90;;;;;;5054039;28;19909;-78
2022/04/20 02:04:35;;;;;;;;;;;9.30;99.90;;;;;;5054137;28;19963;-77
2022/04/20 02:07:00;;;;;;;;;;;9.30;99.90;;;;;;5054112;28;19926;-77
2022/04/20 02:09:26;;;;;;;;;;;9.10;99.90;;;;;;5053901;28;19912;-77
2022/04/20 02:11:51;;;;;;;;;;;9.00;99.90;;;;;;5053750;28;19911;-77
2022/04/20 02:14:17;;;;;;;;;;;8.90;99.90;;;;;;5053726;28;19909;-77
2022/04/20 02:16:43;;;;;;;;;;;9.00;99.90;;;;;;5052431;28;19904;-77
2022/04/20 02:19:08;;;;;;;;;;;9.10;99.90;;;;;;5053644;28;19908;-78
2022/04/20 02:21:34;;;;;;;;;;;9.30;99.90;;;;;;5053643;28;19962;-77
2022/04/20 02:23:59;;;;;;;;;;;9.40;99.90;;;;;;5053858;28;19911;-77
2022/04/20 02:26:25;;;;;;;;;;;9.40;99.90;;;;;;5053548;28;19905;-77
2022/04/20 02:28:51;;;;;;;;;;;9.20;99.90;;;;;;5053779;28;20357;-78
2022/04/20 02:31:16;;;;;;;;;;;9.20;99.90;;;;;;5053571;28;20285;-76
2022/04/20 02:33:42;;;;;;;;;;;9.30;99.90;;;;;;5053535;28;20272;-76
2022/04/20 02:36:08;;;;;;;;;;;9.40;99.90;;;;;;5051999;28;19925;-75
2022/04/20 02:38:34;;;;;;;;;;;9.50;99.90;;;;;;5053435;28;19950;-77
2022/04/20 02:41:00;;;;;;;;;;;9.60;99.90;;;;;;5053646;28;19905;-77
2022/04/20 02:43:25;;;;;;;;;;;9.60;99.90;;;;;;5053447;28;20276;-77
2022/04/20 02:45:51;;;;;;;;;;;9.70;99.90;;;;;;5052121;28;19905;-78
2022/04/20 02:48:16;;;;;;;;;;;9.70;99.90;;;;;;5053398;28;19912;-78
2022/04/20 02:50:43;;;;;;;;;;;9.70;99.90;;;;;;5053418;28;19951;-77
2022/04/20 02:53:08;;;;;;;;;;;9.80;99.90;;;;;;5053653;28;19962;-77
2022/04/20 02:55:34;;;;;;;;;;;9.80;99.90;;;;;;5053308;28;20303;-77
2022/04/20 02:58:00;;;;;;;;;;;9.80;99.90;;;;;;5053313;28;19905;-76
2022/04/20 03:00:25;;;;;;;;;;;9.90;99.90;;;;;;5053242;28;19908;-76
2022/04/20 03:02:51;;;;;;;;;;;9.80;99.90;;;;;;5053285;28;20281;-77
2022/04/20 03:05:16;;;;;;;;;;;9.80;99.90;;;;;;5053454;28;19954;-77
2022/04/20 03:07:42;;;;;;;;;;;9.80;99.90;;;;;;5051865;28;19905;-78
2022/04/20 03:10:08;;;;;;;;;;;9.70;99.90;;;;;;5053108;28;19905;-76
2022/04/20 03:12:33;;;;;;;;;;;9.70;99.90;;;;;;5051839;28;19984;-75
2022/04/20 03:14:59;;;;;;;;;;;9.50;99.90;;;;;;5053147;28;19904;-76
2022/04/20 03:17:25;;;;;;;;;;;9.60;99.90;;;;;;5053254;28;19987;-76
2022/04/20 03:19:51;;;;;;;;;;;9.70;99.90;;;;;;5053025;28;20284;-77
2022/04/20 03:22:17;;;;;;;;;;;9.60;99.90;;;;;;5051749;28;20296;-76
2022/04/20 03:24:42;;;;;;;;;;;9.60;99.90;;;;;;5053129;28;19911;-76
2022/04/20 03:27:08;;;;;;;;;;;9.60;99.90;;;;;;5053093;28;19932;-76
2022/04/20 03:29:34;;;;;;;;;;;9.50;99.90;;;;;;5051759;28;20349;-76
2022/04/20 03:32:01;;;;;;;;;;;9.40;99.90;;;;;;5053231;28;19912;-76
2022/04/20 03:34:28;;;;;;;;;;;9.40;99.90;;;;;;5053016;28;19943;-76
2022/04/20 03:36:53;;;;;;;;;;;9.10;99.90;;;;;;5052961;28;19920;-75
2022/04/20 03:39:19;;;;;;;;;;;8.70;99.90;;;;;;5056270;28;20055;-76
2022/04/20 03:41:45;;;;;;;;;;;8.60;99.90;;;;;;5056531;28;19911;-78
2022/04/20 03:44:10;;;;;;;;;;;8.80;99.90;;;;;;5056520;28;20271;-75
2022/04/20 03:46:36;;;;;;;;;;;9.00;99.90;;;;;;5056369;28;19958;-77
2022/04/20 03:49:01;;;;;;;;;;;9.00;99.90;;;;;;5056281;28;19905;-76
2022/04/20 03:51:27;;;;;;;;;;;9.00;99.90;;;;;;5056214;28;19912;-77
2022/04/20 03:53:52;;;;;;;;;;;9.00;99.90;;;;;;5056571;28;19959;-76
2022/04/20 03:56:18;;;;;;;;;;;9.00;99.90;;;;;;5056115;28;19908;-76
2022/04/20 03:58:44;;;;;;;;;;;9.00;99.90;;;;;;5054526;28;19999;-76
2022/04/20 04:01:09;;;;;;;;;;;8.70;99.90;;;;;;5056074;28;19905;-76
2022/04/20 04:03:35;;;;;;;;;;;8.60;99.90;;;;;;5054728;28;19987;-76
2022/04/20 04:06:00;;;;;;;;;;;8.60;99.90;;;;;;5056311;28;20006;-75
2022/04/20 04:08:26;;;;;;;;;;;8.90;99.90;;;;;;5056047;28;19912;-76
2022/04/20 04:10:52;;;;;;;;;;;8.90;99.90;;;;;;5055841;28;19904;-76
2022/04/20 04:13:17;;;;;;;;;;;8.90;99.90;;;;;;5054550;28;19908;-76
2022/04/20 04:15:44;;;;;;;;;;;8.90;99.90;;;;;;5055795;28;19912;-76
2022/04/20 04:18:09;;;;;;;;;;;8.90;99.90;;;;;;5055887;28;19938;-76
2022/04/20 04:20:35;;;;;;;;;;;8.90;99.90;;;;;;5055708;28;20382;-75
2022/04/20 04:23:01;;;;;;;;;;;9.00;99.90;;;;;;5054386;28;19911;-75
2022/04/20 04:25:27;;;;;;;;;;;9.00;99.90;;;;;;5054246;28;20415;-77
2022/04/20 04:27:52;;;;;;;;;;;9.10;99.90;;;;;;5055528;28;19987;-76
2022/04/20 04:30:18;;;;;;;;;;;9.00;99.90;;;;;;5055497;28;20283;-77
2022/04/20 04:32:43;;;;;;;;;;;8.50;99.90;;;;;;5055574;28;20444;-75
2022/04/20 04:35:09;;;;;;;;;;;8.00;99.90;;;;;;5053879;28;19917;-76
2022/04/20 04:37:35;;;;;;;;;;;7.80;99.90;;;;;;5054084;28;19950;-76
2022/04/20 04:40:01;;;;;;;;;;;7.90;99.90;;;;;;5053949;28;19963;-77
2022/04/20 04:42:26;;;;;;;;;;;8.00;99.90;;;;;;5055363;28;19905;-77
2022/04/20 04:44:52;;;;;;;;;;;8.30;99.90;;;;;;5055217;28;19904;-75
2022/04/20 04:50:03;;;;;;;;;;;8.00;99.90;;;;;;5053920;28;19912;-76
2022/04/20 04:52:29;;;;;;;;;;;8.20;99.90;;;;;;5055083;28;19912;-77
2022/04/20 04:54:54;;;;;;;;;;;8.40;99.90;;;;;;5055239;28;19905;-76
2022/04/20 04:57:20;;;;;;;;;;;8.50;99.90;;;;;;5054969;28;19958;-77
2022/04/20 04:59:46;;;;;;;;;;;8.50;99.90;;;;;;5053549;28;20273;-75
2022/04/20 05:02:11;;;;;;;;;;;8.50;99.90;;;;;;5055255;28;19905;-76
2022/04/20 05:04:39;;;;;;;;;;;8.50;99.90;;;;;;5054790;28;20324;-76
2022/04/20 05:07:05;;;;;;;;;;;8.50;99.90;;;;;;5054787;28;20368;-76
2022/04/20 05:09:30;;;;;;;;;;;8.50;99.90;;;;;;5054458;28;19991;-76
2022/04/20 05:11:56;;;;;;;;;;;8.20;99.90;;;;;;5054635;28;19911;-76
2022/04/20 05:14:22;;;;;;;;;;;7.70;99.90;;;;;;5054659;28;19905;-77
2022/04/20 05:16:48;;;;;;;;;;;7.40;99.90;;;;;;5054615;28;20410;-76
2022/04/20 05:19:14;;;;;;;;;;;7.30;99.90;;;;;;5054484;28;19980;-77
2022/04/20 05:21:40;;;;;;;;;;;7.70;99.90;;;;;;5054671;28;19999;-77
2022/04/20 05:24:05;;;;;;;;;;;8.10;99.90;;;;;;5054520;28;19905;-76
2022/04/20 05:26:31;;;;;;;;;;;8.30;99.90;;;;;;5054580;28;19905;-77
2022/04/20 05:28:56;;;;;;;;;;;8.40;99.90;;;;;;5054343;28;19905;-76
2022/04/20 05:31:22;;;;;;;;;;;8.40;99.90;;;;;;5054359;28;20042;-76
2022/04/20 05:33:49;;;;;;;;;;;8.50;99.90;;;;;;5052957;28;19905;-76
2022/04/20 05:36:14;;;;;;;;;;;8.50;99.90;;;;;;5054365;28;19924;-76
2022/04/20 05:41:39;;;;;;;;;;;8.80;99.90;;;;;;5054218;28;19912;-76
2022/04/20 05:44:05;;;;;;;;;;;8.90;99.90;;;;;;5054314;28;19904;-77
2022/04/20 05:46:32;;;;;;;;;;;9.00;99.90;;;;;;5054104;28;19928;-76
2022/04/20 05:48:58;;;;;;;;;;;8.90;99.90;;;;;;5054094;28;19912;-77
2022/04/20 05:51:23;;;;;;;;;;;8.80;99.90;;;;;;5054163;28;19905;-77
2022/04/20 05:53:49;;;;;;;;;;;8.90;99.90;;;;;;5054167;28;19904;-76
2022/04/20 05:56:15;;;;;;;;;;;8.90;99.90;;;;;;5053948;28;20410;-77
2022/04/20 05:58:40;;;;;;;;;;;9.00;99.90;;;;;;5052323;28;19905;-75
2022/04/20 06:01:06;;;;;;;;;;;9.20;99.90;;;;;;5053968;28;20383;-76
2022/04/20 06:03:31;;;;;;;;;;;9.20;99.90;;;;;;5054156;28;19904;-75
2022/04/20 06:05:57;;;;;;;;;;;9.00;99.90;;;;;;5053802;28;19951;-75
2022/04/20 06:08:23;;;;;;;;;;;8.90;99.90;;;;;;5054044;28;20331;-77
2022/04/20 06:10:48;;;;;;;;;;;9.10;99.90;;;;;;5053618;28;20336;-76
2022/04/20 06:13:14;;;;;;;;;;;9.20;99.90;;;;;;5054091;28;19904;-77
2022/04/20 06:15:40;;;;;;;;;;;9.40;99.90;;;;;;5052347;28;20353;-75
2022/04/20 06:18:05;;;;;;;;;;;9.70;99.90;;;;;;5053604;28;20361;-75
2022/04/20 06:20:31;;;;;;;;;;;9.90;99.90;;;;;;5053556;28;19909;-75
2022/04/20 06:22:56;;;;;;;;;;;10.00;99.90;;;;;;5053920;28;19905;-76
2022/04/20 06:25:22;;;;;;;;;;;10.50;99.90;;;;;;5053501;28;20339;-76
2022/04/20 06:27:48;;;;;;;;;;;10.80;99.90;;;;;;5053621;28;19909;-77
2022/04/20 06:30:13;;;;;;;;;;;11.00;99.90;;;;;;5053547;28;20315;-76
2022/04/20 06:32:39;;;;;;;;;;;11.20;99.90;;;;;;5053473;28;19904;-76
2022/04/20 06:35:05;;;;;;;;;;;11.40;99.90;;;;;;5053305;28;19925;-76
2022/04/20 06:37:30;;;;;;;;;;;11.50;99.90;;;;;;5051879;28;19959;-77
2022/04/20 06:39:56;;;;;;;;;;;11.80;99.90;;;;;;5053313;28;19908;-77
2022/04/20 06:42:23;;;;;;;;;;;12.30;99.90;;;;;;5053377;28;20311;-77
2022/04/20 06:44:49;;;;;;;;;;;12.60;99.90;;;;;;5053598;28;19916;-77
2022/04/20 06:47:14;;;;;;;;;;;13.30;99.90;;;;;;5053298;28;20269;-75
2022/04/20 06:49:41;;;;;;;;;;;13.80;99.90;;;;;;5053316;28;19905;-77
2022/04/20 07:00:19;;;;;;;;;;;14.70;99.90;;;;;;5052823;28;20012;-77
2022/04/20 07:02:45;;;;;;;;;;;14.70;99.90;;;;;;5053186;28;20377;-77
2022/04/20 07:05:10;;;;;;;;;;;14.70;99.90;;;;;;5053139;28;20293;-78
2022/04/20 07:07:36;;;;;;;;;;;14.70;99.90;;;;;;5053307;28;20003;-76
2022/04/20 07:10:02;;;;;;;;;;;14.90;99.90;;;;;;5053199;28;19912;-77
2022/04/20 07:12:28;;;;;;;;;;;15.20;99.90;;;;;;5054908;28;19909;-78
2022/04/20 07:14:54;;;;;;;;;;;15.40;99.90;;;;;;5057089;28;19911;-76
2022/04/20 07:17:19;;;;;;;;;;;15.50;99.90;;;;;;5056947;28;20289;-76
2022/04/20 07:19:45;;;;;;;;;;;15.60;99.90;;;;;;5056827;28;19958;-78
2022/04/20 07:22:10;;;;;;;;;;;16.00;99.90;;;;;;5056842;28;20246;-76
2022/04/20 07:24:36;;;;;;;;;;;16.30;99.90;;;;;;5057074;28;19904;-78
2022/04/20 07:27:01;;;;;;;;;;;16.30;99.90;;;;;;5056790;28;19904;-78
2022/04/20 07:29:27;;;;;;;;;;;16.50;99.90;;;;;;5056703;28;19955;-75
2022/04/20 07:31:53;;;;;;;;;;;16.30;99.90;;;;;;5056915;28;19958;-77
2022/04/20 07:34:18;;;;;;;;;;;16.10;99.90;;;;;;5056667;28;19909;-77
2022/04/20 07:36:44;;;;;;;;;;;16.20;99.90;;;;;;5056490;28;19975;-77
2022/04/20 07:39:10;;;;;;;;;;;15.90;99.90;;;;;;5056427;28;19913;-78
2022/04/20 07:41:38;;;;;;;;;;;15.70;99.90;;;;;;5056417;28;19958;-76
2022/04/20 07:44:04;;;;;;;;;;;15.60;99.90;;;;;;5055131;28;19905;-76
2022/04/20 07:46:29;;;;;;;;;;;15.60;99.90;;;;;;5056357;28;19905;-77
2022/04/20 07:48:55;;;;;;;;;;;15.80;99.90;;;;;;5056331;28;19905;-77
2022/04/20 07:51:21;;;;;;;;;;;15.90;99.90;;;;;;5056259;28;19915;-78
2022/04/20 07:53:46;;;;;;;;;;;15.80;99.90;;;;;;5056216;28;19905;-77
2022/04/20 07:56:12;;;;;;;;;;;15.70;99.90;;;;;;5056200;28;19908;-77
2022/04/20 07:58:37;;;;;;;;;;;15.70;99.90;;;;;;5056141;28;19908;-77
2022/04/20 08:01:03;;;;;;;;;;;15.70;99.90;;;;;;5056014;28;20280;-75
2022/04/20 08:03:29;;;;;;;;;;;15.90;99.90;;;;;;5056002;28;19925;-76
2022/04/20 08:05:55;;;;;;;;;;;16.30;99.90;;;;;;5056193;28;20349;-76
2022/04/20 08:08:21;;;;;;;;;;;16.70;99.90;;;;;;5055975;28;19911;-78
2022/04/20 08:10:47;;;;;;;;;;;17.60;99.90;;;;;;5055962;28;19905;-77
2022/04/20 08:15:57;;;;;;;;;;;19.30;99.90;;;;;;5055894;28;20323;-78
2022/04/20 08:18:23;;;;;;;;;;;20.60;99.60;;;;;;5055537;28;19904;-77
2022/04/20 08:20:49;;;;;;;;;;;20.60;98.80;;;;;;5055668;28;20296;-78
2022/04/20 08:23:15;;;;;;;;;;;21.50;97.20;;;;;;5055562;28;19904;-79
2022/04/20 08:25:41;;;;;;;;;;;21.30;94.80;;;;;;5054435;28;20376;-77
2022/04/20 08:28:07;;;;;;;;;;;22.40;93.20;;;;;;5055719;28;19912;-77
2022/04/20 08:30:33;;;;;;;;;;;22.00;92.30;;;;;;5054291;28;20353;-77
2022/04/20 08:32:58;;;;;;;;;;;21.90;92.10;;;;;;5055565;28;19999;-77
2022/04/20 08:35:24;;;;;;;;;;;22.10;90.80;;;;;;5054022;28;19975;-78
2022/04/20 08:37:50;;;;;;;;;;;23.10;86.90;;;;;;5055574;28;19908;-77
2022/04/20 08:40:15;;;;;;;;;;;24.30;78.00;;;;;;5055370;28;20389;-76
2022/04/20 08:42:41;;;;;;;;;;;25.40;74.60;;;;;;5055593;28;19905;-78
2022/04/20 08:45:07;;;;;;;;;;;26.20;68.70;;;;;;5055301;28;19950;-78
2022/04/20 08:47:37;;;;;;;;;;;25.80;68.00;;;;;;5055501;28;19905;-77
2022/04/20 08:50:04;;;;;;;;;;;24.40;66.00;;;;;;5055324;28;19905;-77
2022/04/20 08:52:39;;;;;;;;;;;24.30;69.60;;;;;;5055579;28;20273;-77
2022/04/20 08:55:05;;;;;;;;;;;25.20;68.50;;;;;;5055314;28;20373;-78
2022/04/20 08:57:32;;;;;;;;;;;25.70;65.00;;;;;;5055119;28;19996;-78
2022/04/20 08:59:58;;;;;;;;;;;26.50;62.50;;;;;;5055008;28;19912;-80
2022/04/20 09:02:24;;;;;;;;;;;27.00;61.50;;;;;;5055033;28;20369;-77
2022/04/20 09:04:50;;;;;;;;;;;27.20;59.20;;;;;;5055114;28;19904;-79
2022/04/20 09:07:16;;;;;;;;;;;27.40;58.80;;;;;;5055053;28;20384;-79
2022/04/20 09:09:41;;;;;;;;;;;28.60;56.50;;;;;;5053450;28;20392;-77
2022/04/20 09:12:10;;;;;;;;;;;29.20;55.10;;;;;;5054884;28;19905;-78
2022/04/20 09:14:36;;;;;;;;;;;29.90;54.10;;;;;;5054838;28;19905;-78
2022/04/20 09:17:02;;;;;;;;;;;29.30;51.60;;;;;;5054922;28;20015;-78
2022/04/20 09:19:28;;;;;;;;;;;29.70;50.60;;;;;;5054680;28;19908;-78
2022/04/20 09:21:55;;;;;;;;;;;30.30;50.30;;;;;;5054652;28;20004;-78
2022/04/20 09:24:21;;;;;;;;;;;31.20;50.50;;;;;;5054655;28;19905;-78
2022/04/20 09:26:56;;;;;;;;;;;31.70;49.30;;;;;;5053284;28;19905;-77
2022/04/20 09:29:23;;;;;;;;;;;31.60;48.60;;;;;;5054425;28;19912;-76
2022/04/20 09:31:50;;;;;;;;;;;30.80;47.50;;;;;;5054407;28;19908;-78
2022/04/20 09:34:24;;;;;;;;;;;31.10;48.30;;;;;;5053988;28;20374;-78
2022/04/20 09:36:50;;;;;;;;;;;31.80;48.00;;;;;;5052700;28;19917;-78
2022/04/20 09:39:16;;;;;;;;;;;32.60;45.50;;;;;;5054370;28;19904;-77
2022/04/20 09:42:00;;;;;;;;;;;33.30;44.80;;;;;;5054277;28;19912;-79
2022/04/20 09:44:27;;;;;;;;;;;33.50;44.40;;;;;;5052993;28;20391;-80
2022/04/20 09:49:51;;;;;;;;;;;35.50;42.20;;;;;;5054017;28;19915;-76
2022/04/20 09:52:17;;;;;;;;;;;36.00;40.60;;;;;;5054097;28;19911;-75
2022/04/20 09:54:48;;;;;;;;;;;36.90;39.30;;;;;;5054028;28;19905;-75
2022/04/20 09:57:14;;;;;;;;;;;37.30;39.00;;;;;;5054326;28;19905;-77
2022/04/20 09:59:58;;;;;;;;;;;38.20;37.40;;;;;;5054094;28;20007;-75
2022/04/20 10:02:23;;;;;;;;;;;38.40;37.60;;;;;;5054357;28;20395;-77
2022/04/20 10:04:50;;;;;;;;;;;39.00;37.20;;;;;;5053843;28;19996;-77
2022/04/20 10:07:16;;;;;;;;;;;38.90;37.10;;;;;;5053927;28;19927;-78
2022/04/20 10:09:43;;;;;;;;;;;38.50;36.60;;;;;;5053630;28;20430;-76
2022/04/20 10:12:10;;;;;;;;;;;38.80;36.10;;;;;;5053793;28;20434;-77
2022/04/20 10:17:23;;;;;;;;;;;40.70;35.80;;;;;;5053408;28;19950;-77
2022/04/20 10:19:49;;;;;;;;;;;41.90;34.10;;;;;;5053647;28;20369;-77
2022/04/20 10:22:17;;;;;;;;;;;42.00;34.60;;;;;;5053357;28;19905;-76
2022/04/20 10:24:45;;;;;;;;;;;42.20;33.80;;;;;;5053612;28;19904;-76
2022/04/20 10:27:16;;;;;;;;;;;42.40;33.40;;;;;;5053739;28;19905;-77
2022/04/20 10:30:02;;;;;;;;;;;43.00;33.70;;;;;;5053687;28;19916;-77
2022/04/20 10:32:30;;;;;;;;;;;42.50;33.50;;;;;;5053519;28;19995;-76
2022/04/20 10:34:59;;;;;;;;;;;43.50;33.30;;;;;;5053304;28;19904;-78
2022/04/20 10:37:31;;;;;;;;;;;43.80;33.00;;;;;;5053684;28;19909;-78
2022/04/20 10:40:13;;;;;;;;;;;44.00;32.70;;;;;;5053635;28;19912;-76
2022/04/20 10:42:39;;;;;;;;;;;44.60;32.60;;;;;;5053413;28;19916;-77
2022/04/20 10:45:06;;;;;;;;;;;45.20;31.70;;;;;;5053347;28;19904;-76
2022/04/20 10:47:40;;;;;;;;;;;44.60;31.50;;;;;;5055475;28;19992;-74
2022/04/20 10:50:13;;;;;;;;;;;43.90;31.40;;;;;;5056186;28;19909;-77
2022/04/20 10:52:41;;;;;;;;;;;44.00;31.50;;;;;;5057470;28;19908;-76
2022/04/20 10:55:06;;;;;;;;;;;44.50;31.20;;;;;;5057441;28;20369;-79
2022/04/20 10:57:39;;;;;;;;;;;43.90;31.30;;;;;;5057408;28;19912;-77
2022/04/20 11:00:16;;;;;;;;;;;43.20;31.70;;;;;;5057454;28;19904;-75
2022/04/20 11:02:49;;;;;;;;;;;42.70;31.80;;;;;;5057274;28;19911;-77
2022/04/20 11:05:19;;;;;;;;;;;42.60;31.80;;;;;;5057403;28;19905;-76
2022/04/20 11:08:14;;;;;;;;;;;42.70;32.50;;;;;;5057479;28;20002;-75
2022/04/20 11:10:41;;;;;;;;;;;43.70;31.60;;;;;;5047904;28;19909;-78
2022/04/20 11:19:05;;;;;;;;;;;42.60;32.10;;;;;;5056771;28;19912;-76
2022/04/20 11:21:32;;;;;;;;;;;42.80;31.80;;;;;;5057134;28;19953;-77
2022/04/20 11:23:58;;;;;;;;;;;43.30;32.20;;;;;;5057056;28;19912;-78
2022/04/20 11:26:28;;;;;;;;;;;42.50;31.70;;;;;;5056872;28;19904;-78
2022/04/20 11:28:54;;;;;;;;;;;43.00;31.80;;;;;;5056819;28;20281;-76
2022/04/20 11:31:20;;;;;;;;;;;43.50;31.70;;;;;;5056764;28;20003;-77
2022/04/20 11:33:46;;;;;;;;;;;43.00;31.20;;;;;;5056708;28;20394;-76
2022/04/20 11:36:12;;;;;;;;;;;42.60;30.60;;;;;;5056452;28;19916;-77
2022/04/20 11:38:40;;;;;;;;;;;43.10;31.10;;;;;;5056674;28;19905;-76
2022/04/20 11:41:05;;;;;;;;;;;44.20;31.00;;;;;;5056637;28;20335;-77
2022/04/20 11:43:31;;;;;;;;;;;43.40;30.30;;;;;;5056485;28;19912;-77
2022/04/20 11:45:57;;;;;;;;;;;43.20;30.70;;;;;;5056943;28;20275;-76
2022/04/20 11:48:23;;;;;;;;;;;42.70;30.70;;;;;;5056458;28;20019;-76
2022/04/20 11:50:56;;;;;;;;;;;44.20;31.00;;;;;;5056465;28;19982;-78
2022/04/20 11:53:30;;;;;;;;;;;44.40;31.00;;;;;;5055080;28;19999;-77
2022/04/20 11:55:56;;;;;;;;;;;44.70;30.80;;;;;;5056352;28;19954;-78
2022/04/20 11:58:21;;;;;;;;;;;46.10;31.10;;;;;;5055914;28;20361;-75
2022/04/20 12:00:47;;;;;;;;;;;46.50;30.10;;;;;;5056213;28;19904;-75
2022/04/20 12:03:12;;;;;;;;;;;47.20;30.00;;;;;;5056269;28;19912;-75
2022/04/20 12:05:38;;;;;;;;;;;47.50;29.80;;;;;;5056191;28;19908;-76
2022/04/20 12:08:04;;;;;;;;;;;48.70;29.70;;;;;;5056096;28;20273;-76
2022/04/20 12:10:32;;;;;;;;;;;46.70;29.20;;;;;;5056179;28;19909;-78
2022/04/20 12:13:01;;;;;;;;;;;48.00;29.90;;;;;;5056116;28;19966;-77
2022/04/20 12:15:27;;;;;;;;;;;47.70;29.50;;;;;;5055954;28;19940;-76
2022/04/20 12:17:52;;;;;;;;;;;48.80;30.00;;;;;;5055924;28;20006;-77
2022/04/20 12:20:18;;;;;;;;;;;48.50;29.30;;;;;;5055849;28;19908;-77
2022/04/20 12:22:44;;;;;;;;;;;48.60;29.40;;;;;;5056190;28;19971;-77
2022/04/20 12:25:11;;;;;;;;;;;48.60;30.10;;;;;;5055735;28;19912;-76
2022/04/20 12:27:52;;;;;;;;;;;49.00;29.70;;;;;;5055708;28;19991;-76
2022/04/20 12:30:36;;;;;;;;;;;48.50;29.30;;;;;;5055634;28;19908;-78
2022/04/20 12:33:04;;;;;;;;;;;48.60;29.20;;;;;;5055597;28;19911;-75
2022/04/20 12:35:31;;;;;;;;;;;47.70;29.10;;;;;;5055431;28;19931;-77
2022/04/20 12:37:57;;;;;;;;;;;49.10;29.40;;;;;;5055500;28;19904;-79
2022/04/20 12:40:24;;;;;;;;;;;50.40;29.30;;;;;;5055398;28;20011;-76
2022/04/20 12:42:59;;;;;;;;;;;49.80;28.90;;;;;;5055582;28;19955;-76
2022/04/20 12:45:25;;;;;;;;;;;48.60;28.90;;;;;;5055405;28;19905;-77
2022/04/20 12:48:00;;;;;;;;;;;48.30;29.00;;;;;;5054000;28;20422;-77
2022/04/20 12:50:33;;;;;;;;;;;49.40;29.10;;;;;;5055318;28;19963;-76
2022/04/20 12:52:59;;;;;;;;;;;50.00;29.20;;;;;;5055473;28;20003;-77
2022/04/20 12:55:33;;;;;;;;;;;50.50;29.00;;;;;;5055447;28;19905;-76
2022/04/20 13:03:34;;;;;;;;;;;49.30;28.90;;;;;;5055363;28;19911;-75
2022/04/20 13:05:59;;;;;;;;;;;50.40;29.30;;;;;;5055067;28;19955;-74
2022/04/20 13:08:26;;;;;;;;;;;50.30;29.20;;;;;;5054926;28;19905;-76
2022/04/20 13:10:51;;;;;;;;;;;49.50;29.00;;;;;;5053833;28;20288;-76
2022/04/20 13:13:21;;;;;;;;;;;49.60;28.90;;;;;;5054860;28;19911;-75
2022/04/20 13:15:47;;;;;;;;;;;49.50;28.90;;;;;;5054484;28;19931;-77
2022/04/20 13:18:13;;;;;;;;;;;49.10;29.00;;;;;;5053317;28;19904;-77
2022/04/20 13:20:38;;;;;;;;;;;48.50;29.10;;;;;;5054646;28;20273;-77
2022/04/20 13:23:05;;;;;;;;;;;48.80;29.30;;;;;;5054723;28;19999;-77
2022/04/20 13:28:15;;;;;;;;;;;48.10;29.40;;;;;;5054507;28;20332;-76
2022/04/20 13:30:41;;;;;;;;;;;47.90;29.10;;;;;;5054562;28;19932;-76
2022/04/20 13:33:13;;;;;;;;;;;47.60;29.00;;;;;;5054346;28;19905;-76
2022/04/20 13:35:40;;;;;;;;;;;47.40;29.80;;;;;;5054268;28;20015;-76
2022/04/20 13:38:06;;;;;;;;;;;47.10;29.40;;;;;;5053106;28;19951;-76
2022/04/20 13:40:32;;;;;;;;;;;47.20;29.40;;;;;;5054249;28;19909;-77
2022/04/20 13:42:58;;;;;;;;;;;47.20;29.30;;;;;;5054253;28;19905;-76
2022/04/20 13:45:23;;;;;;;;;;;47.00;29.20;;;;;;5054273;28;20289;-76
2022/04/20 13:47:49;;;;;;;;;;;46.40;29.50;;;;;;5054204;28;19909;-77
2022/04/20 13:50:15;;;;;;;;;;;45.60;29.70;;;;;;5054444;28;19905;-76
2022/04/20 13:52:40;;;;;;;;;;;46.10;30.00;;;;;;5054059;28;19912;-76
2022/04/20 13:55:07;;;;;;;;;;;44.40;30.00;;;;;;5053976;28;20284;-76
2022/04/20 13:57:32;;;;;;;;;;;43.80;30.30;;;;;;5053960;28;19955;-76
2022/04/20 13:59:59;;;;;;;;;;;43.10;30.70;;;;;;5054002;28;19909;-76
2022/04/20 14:02:24;;;;;;;;;;;41.90;30.40;;;;;;5054139;28;19909;-75
2022/04/20 14:04:53;;;;;;;;;;;39.20;31.00;;;;;;5053968;28;20376;-76
2022/04/20 14:07:19;;;;;;;;;;;39.40;32.00;;;;;;5052572;28;20392;-76
2022/04/20 14:09:47;;;;;;;;;;;39.60;32.40;;;;;;5053770;28;19908;-75
2022/04/20 14:12:17;;;;;;;;;;;39.60;31.80;;;;;;5052541;28;19904;-76
2022/04/20 14:14:42;;;;;;;;;;;39.30;31.40;;;;;;5052800;28;19911;-75
2022/04/20 14:17:10;;;;;;;;;;;38.80;31.40;;;;;;5053904;28;19990;-75
2022/04/20 14:19:43;;;;;;;;;;;38.80;32.00;;;;;;5053621;28;19957;-76
2022/04/20 14:22:10;;;;;;;;;;;39.30;31.90;;;;;;5053764;28;20273;-76
2022/04/20 14:24:35;;;;;;;;;;;38.00;32.10;;;;;;5053637;28;20289;-74
2022/04/20 14:32:30;;;;;;;;;;;38.90;32.60;;;;;;5053287;28;20426;-75
2022/04/20 14:34:56;;;;;;;;;;;37.00;32.70;;;;;;5053442;28;19909;-75
2022/04/20 14:37:21;;;;;;;;;;;36.20;34.60;;;;;;5053412;28;19999;-76
2022/04/20 14:39:47;;;;;;;;;;;35.70;34.90;;;;;;5052138;28;19963;-75
2022/04/20 14:42:13;;;;;;;;;;;35.80;34.80;;;;;;5053475;28;19904;-75
2022/04/20 14:44:39;;;;;;;;;;;37.00;35.00;;;;;;5053468;28;19954;-75
2022/04/20 14:47:09;;;;;;;;;;;36.40;34.40;;;;;;5053578;28;19905;-75
2022/04/20 14:49:35;;;;;;;;;;;36.20;35.10;;;;;;5053454;28;20454;-75
2022/04/20 14:52:01;;;;;;;;;;;34.50;34.80;;;;;;5053425;28;20365;-75
2022/04/20 14:54:28;;;;;;;;;;;33.20;36.50;;;;;;5053373;28;19943;-77
2022/04/20 14:56:53;;;;;;;;;;;32.00;38.70;;;;;;5052406;28;20018;-76
2022/04/20 14:59:19;;;;;;;;;;;32.80;38.30;;;;;;5053248;28;20007;-76
2022/04/20 15:01:45;;;;;;;;;;;33.50;37.80;;;;;;5053350;28;19917;-77